createdAt,value
2022-10-30T00:00:37.607Z,15.67
2022-10-30T00:03:04.419Z,15.67
2022-10-30T00:05:31.459Z,15.68
2022-10-30T00:07:58.873Z,15.73
2022-10-30T00:10:26.086Z,15.69
2022-10-30T00:13:03.163Z,15.68
2022-10-30T00:15:43.608Z,15.66
2022-10-30T00:18:15.137Z,15.64
2022-10-30T00:20:41.922Z,15.63
2022-10-30T00:23:08.668Z,15.57
2022-10-30T00:25:36.697Z,15.58
2022-10-30T00:28:10.200Z,15.52
2022-10-30T00:30:37.553Z,15.48
2022-10-30T00:33:04.641Z,15.46
2022-10-30T00:35:31.721Z,15.48
2022-10-30T00:38:00.799Z,15.49
2022-10-30T00:40:28.341Z,15.51
2022-10-30T00:42:56.066Z,15.46
2022-10-30T00:45:22.831Z,15.47
2022-10-30T00:47:58.566Z,15.35
2022-10-30T00:50:34.825Z,15.36
2022-10-30T00:53:17.513Z,15.31
2022-10-30T00:55:59.007Z,15.32
2022-10-30T00:58:31.878Z,15.30
2022-10-30T01:01:10.263Z,15.18
2022-10-30T01:06:49.123Z,15.18
2022-10-30T01:09:16.070Z,15.21
2022-10-30T01:11:53.948Z,15.12
2022-10-30T01:14:28.924Z,15.05
2022-10-30T01:17:28.967Z,15.10
2022-10-30T01:20:28.535Z,15.14
2022-10-30T01:23:10.291Z,15.10
2022-10-30T01:26:04.269Z,15.08
2022-10-30T01:29:13.446Z,14.99
2022-10-30T01:31:43.259Z,15.17
2022-10-30T01:34:20.696Z,15.10
2022-10-30T01:37:02.018Z,15.00
2022-10-30T01:39:33.543Z,14.91
2022-10-30T01:42:10.035Z,14.87
2022-10-30T01:44:40.007Z,14.94
2022-10-30T01:47:44.875Z,15.03
2022-10-30T01:50:32.794Z,14.92
2022-10-30T01:53:09.807Z,14.90
2022-10-30T01:55:43.979Z,14.90
2022-10-30T01:58:31.447Z,15.02
2022-10-30T02:00:59.261Z,15.01
2022-10-30T02:03:26.846Z,15.07
2022-10-30T02:05:55.546Z,15.10
2022-10-30T02:08:23.791Z,15.11
2022-10-30T02:10:57.475Z,15.12
2022-10-30T02:13:37.229Z,15.18
2022-10-30T02:16:04.128Z,15.25
2022-10-30T02:18:34.889Z,15.25
2022-10-30T02:21:02.637Z,15.25
2022-10-30T02:23:29.477Z,15.21
2022-10-30T02:25:56.186Z,15.23
2022-10-30T02:28:22.786Z,15.19
2022-10-30T02:30:49.664Z,15.23
2022-10-30T02:35:44.976Z,15.12
2022-10-30T02:38:12.135Z,15.21
2022-10-30T02:40:38.903Z,15.11
2022-10-30T02:43:07.472Z,15.13
2022-10-30T02:45:34.163Z,15.09
2022-10-30T02:48:01.624Z,15.20
2022-10-30T02:50:29.275Z,15.12
2022-10-30T02:52:56.352Z,15.15
2022-10-30T02:55:23.273Z,15.15
2022-10-30T02:57:52.492Z,15.17
2022-10-30T03:00:19.227Z,14.99
2022-10-30T03:02:45.900Z,14.93
2022-10-30T03:05:12.958Z,14.92
2022-10-30T03:07:39.559Z,14.83
2022-10-30T03:10:06.510Z,14.86
2022-10-30T03:12:33.320Z,14.80
2022-10-30T03:14:59.928Z,14.82
2022-10-30T03:17:26.781Z,14.82
2022-10-30T03:19:53.714Z,14.81
2022-10-30T03:22:21.204Z,14.83
2022-10-30T03:24:47.821Z,14.75
2022-10-30T03:27:14.450Z,14.75
2022-10-30T03:29:41.108Z,14.71
2022-10-30T03:32:12.584Z,14.70
2022-10-30T03:34:50.631Z,14.63
2022-10-30T03:37:18.874Z,14.58
2022-10-30T03:39:45.773Z,14.47
2022-10-30T03:42:15.813Z,14.52
2022-10-30T03:44:42.852Z,14.55
2022-10-30T03:47:12.749Z,14.49
2022-10-30T03:49:41.527Z,14.48
2022-10-30T03:52:12.355Z,14.46
2022-10-30T03:54:39.038Z,14.44
2022-10-30T03:57:15.512Z,14.41
2022-10-30T04:00:00.454Z,14.41
2022-10-30T04:02:56.388Z,14.41
2022-10-30T04:05:29.419Z,14.29
2022-10-30T04:08:05.512Z,14.20
2022-10-30T04:10:35.701Z,14.14
2022-10-30T04:13:07.545Z,14.17
2022-10-30T04:15:37.832Z,14.17
2022-10-30T04:18:06.961Z,14.26
2022-10-30T04:20:37.278Z,14.24
2022-10-30T04:23:22.627Z,14.21
2022-10-30T04:25:49.583Z,14.23
2022-10-30T04:29:17.555Z,14.17
2022-10-30T04:31:44.823Z,14.20
2022-10-30T04:34:12.402Z,14.22
2022-10-30T04:36:39.103Z,14.19
2022-10-30T04:39:05.803Z,14.16
2022-10-30T04:41:33.824Z,14.11
2022-10-30T04:44:14.706Z,14.22
2022-10-30T04:46:41.331Z,14.22
2022-10-30T04:49:10.268Z,14.24
2022-10-30T04:51:37.892Z,14.28
2022-10-30T04:54:24.934Z,14.25
2022-10-30T04:57:15.555Z,14.15
2022-10-30T04:59:48.929Z,14.18
2022-10-30T05:02:16.060Z,14.13
2022-10-30T05:04:56.057Z,14.08
2022-10-30T05:08:21.575Z,14.03
2022-10-30T05:11:12.230Z,13.97
2022-10-30T05:13:43.693Z,13.95
2022-10-30T05:16:13.304Z,13.87
2022-10-30T05:18:40.496Z,13.75
2022-10-30T05:21:07.197Z,13.58
2022-10-30T05:23:38.542Z,13.70
2022-10-30T05:26:32.106Z,13.71
2022-10-30T05:29:01.589Z,13.77
2022-10-30T05:31:35.738Z,13.72
2022-10-30T05:34:07.320Z,13.64
2022-10-30T05:36:37.236Z,13.65
2022-10-30T05:39:04.300Z,13.69
2022-10-30T05:41:35.139Z,13.72
2022-10-30T05:44:02.682Z,13.73
2022-10-30T05:46:29.699Z,13.80
2022-10-30T05:49:05.640Z,13.68
2022-10-30T05:51:38.013Z,13.66
2022-10-30T05:54:08.467Z,13.69
2022-10-30T05:56:37.876Z,13.68
2022-10-30T05:59:04.627Z,13.67
2022-10-30T06:01:31.423Z,13.76
2022-10-30T06:04:00.979Z,13.76
2022-10-30T06:06:27.660Z,13.76
2022-10-30T06:08:55.572Z,13.77
2022-10-30T06:11:35.048Z,13.75
2022-10-30T06:14:02.293Z,13.64
2022-10-30T06:16:39.561Z,13.57
2022-10-30T06:19:28.499Z,13.53
2022-10-30T06:22:11.952Z,13.50
2022-10-30T06:24:46.152Z,13.46
2022-10-30T06:27:27.869Z,13.46
2022-10-30T06:29:55.051Z,13.46
2022-10-30T06:32:22.345Z,13.45
2022-10-30T06:34:49.435Z,13.41
2022-10-30T06:37:17.890Z,13.48
2022-10-30T06:39:51.030Z,13.53
2022-10-30T06:42:54.767Z,13.48
2022-10-30T06:45:45.676Z,13.49
2022-10-30T06:48:29.902Z,13.55
2022-10-30T06:50:58.024Z,13.70
2022-10-30T06:53:26.166Z,13.70
2022-10-30T06:56:07.702Z,13.73
2022-10-30T06:59:08.303Z,13.76
2022-10-30T07:01:48.157Z,13.94
2022-10-30T07:04:17.419Z,14.08
2022-10-30T07:06:51.086Z,14.30
2022-10-30T07:09:29.531Z,14.30
2022-10-30T07:12:07.210Z,14.42
2022-10-30T07:14:41.823Z,14.48
2022-10-30T07:17:25.351Z,14.54
2022-10-30T07:19:57.049Z,14.52
2022-10-30T07:22:23.837Z,14.55
2022-10-30T07:24:58.110Z,14.62
2022-10-30T07:27:53.266Z,14.68
2022-10-30T07:30:28.689Z,14.75
2022-10-30T07:33:14.415Z,14.86
2022-10-30T07:36:16.165Z,14.92
2022-10-30T07:38:51.459Z,14.88
2022-10-30T07:41:43.659Z,14.95
2022-10-30T07:44:33.248Z,15.07
2022-10-30T07:47:13.061Z,15.22
2022-10-30T07:49:45.786Z,15.27
2022-10-30T07:52:17.150Z,15.33
2022-10-30T07:54:45.994Z,15.44
2022-10-30T07:57:40.163Z,15.48
2022-10-30T08:00:16.825Z,15.58
2022-10-30T08:02:56.810Z,15.66
2022-10-30T08:05:33.264Z,15.73
2022-10-30T08:08:09.612Z,15.89
2022-10-30T08:10:41.952Z,15.95
2022-10-30T08:13:08.905Z,16.00
2022-10-30T08:15:36.106Z,16.17
2022-10-30T08:18:03.522Z,16.15
2022-10-30T08:20:30.459Z,16.25
2022-10-30T08:22:59.749Z,16.37
2022-10-30T08:25:28.745Z,16.42
2022-10-30T08:28:02.054Z,16.48
2022-10-30T08:30:35.322Z,16.54
2022-10-30T08:33:08.402Z,16.62
2022-10-30T08:35:57.755Z,16.74
2022-10-30T08:38:30.409Z,16.82
2022-10-30T08:41:15.888Z,16.90
2022-10-30T08:43:48.915Z,17.03
2022-10-30T08:46:19.671Z,17.11
2022-10-30T08:48:46.662Z,17.14
2022-10-30T08:51:14.092Z,17.25
2022-10-30T08:53:44.394Z,17.27
2022-10-30T08:56:14.157Z,17.42
2022-10-30T08:59:10.258Z,17.59
2022-10-30T09:01:39.745Z,17.67
2022-10-30T09:04:18.704Z,17.81
2022-10-30T09:07:13.085Z,17.84
2022-10-30T09:10:02.205Z,17.93
2022-10-30T09:12:31.991Z,18.05
2022-10-30T09:15:03.926Z,18.10
2022-10-30T09:17:39.803Z,18.20
2022-10-30T09:20:07.162Z,18.32
2022-10-30T09:22:41.011Z,18.48
2022-10-30T09:25:11.163Z,18.42
2022-10-30T09:27:51.516Z,18.42
2022-10-30T09:30:21.399Z,18.46
2022-10-30T09:33:00.354Z,18.55
2022-10-30T09:35:54.647Z,18.75
2022-10-30T09:38:21.773Z,18.85
2022-10-30T09:41:03.261Z,18.85
2022-10-30T09:44:19.375Z,18.92
2022-10-30T09:47:13.548Z,19.03
2022-10-30T09:50:14.775Z,19.13
2022-10-30T09:53:02.661Z,19.19
2022-10-30T09:55:44.635Z,19.23
2022-10-30T09:58:28.212Z,19.24
2022-10-30T10:01:20.051Z,19.33
2022-10-30T10:04:00.119Z,19.37
2022-10-30T10:06:47.297Z,19.42
2022-10-30T10:09:33.487Z,19.35
2022-10-30T10:12:44.748Z,19.35
2022-10-30T10:15:19.912Z,19.47
2022-10-30T10:17:47.190Z,19.39
2022-10-30T10:20:17.563Z,19.48
2022-10-30T10:22:51.101Z,19.49
2022-10-30T10:25:20.076Z,19.53
2022-10-30T10:28:08.620Z,19.46
2022-10-30T10:30:45.642Z,19.55
2022-10-30T10:33:26.281Z,19.58
2022-10-30T10:36:00.506Z,19.68
2022-10-30T10:38:50.913Z,19.65
2022-10-30T10:41:32.741Z,19.73
2022-10-30T10:44:11.829Z,19.61
2022-10-30T10:46:48.265Z,19.57
2022-10-30T10:49:20.877Z,19.68
2022-10-30T10:52:09.854Z,19.68
2022-10-30T10:54:43.513Z,19.84
2022-10-30T10:57:17.862Z,20.02
2022-10-30T10:59:51.050Z,19.90
2022-10-30T11:02:23.847Z,19.93
2022-10-30T11:04:52.854Z,19.88
2022-10-30T11:07:22.743Z,19.97
2022-10-30T11:09:56.838Z,20.02
2022-10-30T11:12:30.882Z,20.28
2022-10-30T11:15:09.737Z,20.45
2022-10-30T11:17:43.036Z,20.42
2022-10-30T11:20:21.448Z,20.41
2022-10-30T11:22:51.232Z,20.37
2022-10-30T11:25:25.481Z,20.38
2022-10-30T11:27:59.622Z,20.39
2022-10-30T11:30:28.724Z,20.60
2022-10-30T11:32:57.210Z,20.67
2022-10-30T11:35:25.346Z,20.63
2022-10-30T11:38:26.954Z,20.53
2022-10-30T11:40:53.686Z,20.58
2022-10-30T11:43:33.147Z,20.57
2022-10-30T11:46:07.085Z,20.62
2022-10-30T11:48:42.275Z,20.63
2022-10-30T11:51:12.700Z,20.61
2022-10-30T11:53:43.725Z,20.52
2022-10-30T11:56:19.578Z,20.57
2022-10-30T11:58:51.775Z,20.52
2022-10-30T12:01:32.887Z,20.65
2022-10-30T12:04:15.745Z,20.54
2022-10-30T12:06:49.984Z,20.41
2022-10-30T12:09:21.844Z,20.34
2022-10-30T12:11:49.164Z,20.28
2022-10-30T12:14:22.098Z,20.21
2022-10-30T12:16:56.367Z,20.22
2022-10-30T12:19:25.846Z,20.18
2022-10-30T12:22:06.364Z,20.16
2022-10-30T12:24:44.747Z,20.21
2022-10-30T12:27:16.844Z,20.17
2022-10-30T12:30:12.878Z,20.29
2022-10-30T12:32:57.795Z,20.36
2022-10-30T12:35:41.285Z,20.32
2022-10-30T12:38:17.883Z,20.40
2022-10-30T12:40:56.490Z,20.39
2022-10-30T12:43:27.293Z,20.37
2022-10-30T12:46:14.462Z,20.46
2022-10-30T12:48:49.580Z,20.53
2022-10-30T12:51:43.331Z,20.55
2022-10-30T12:54:33.857Z,20.53
2022-10-30T12:57:22.019Z,20.52
2022-10-30T13:00:15.718Z,20.51
2022-10-30T13:03:06.796Z,20.49
2022-10-30T13:05:40.533Z,20.45
2022-10-30T13:08:15.214Z,20.43
2022-10-30T13:11:00.198Z,20.40
2022-10-30T13:13:48.811Z,20.43
2022-10-30T13:16:24.328Z,20.41
2022-10-30T13:18:51.722Z,20.41
2022-10-30T13:21:27.860Z,20.49
2022-10-30T13:24:06.642Z,20.46
2022-10-30T13:26:52.550Z,20.48
2022-10-30T13:29:19.064Z,20.48
2022-10-30T13:31:58.384Z,20.47
2022-10-30T13:34:43.769Z,20.50
2022-10-30T13:37:10.399Z,20.47
2022-10-30T13:39:40.475Z,20.48
2022-10-30T13:42:14.896Z,20.45
2022-10-30T13:44:56.762Z,20.42
2022-10-30T13:47:55.661Z,20.37
2022-10-30T13:50:29.585Z,20.34
2022-10-30T13:52:58.829Z,20.29
2022-10-30T13:55:29.579Z,20.32
2022-10-30T13:58:21.788Z,20.32
2022-10-30T14:01:13.184Z,20.32
2022-10-30T14:04:26.117Z,20.33
2022-10-30T14:07:23.985Z,20.39
2022-10-30T14:10:02.201Z,20.35
2022-10-30T14:12:52.370Z,20.36
2022-10-30T14:15:24.669Z,20.32
2022-10-30T14:18:13.279Z,20.31
2022-10-30T14:20:43.115Z,20.32
2022-10-30T14:23:23.678Z,20.21
2022-10-30T14:26:03.019Z,20.11
2022-10-30T14:28:30.455Z,20.06
2022-10-30T14:31:20.671Z,19.94
2022-10-30T14:33:51.239Z,19.89
2022-10-30T14:36:34.317Z,19.81
2022-10-30T14:39:10.604Z,19.82
2022-10-30T14:42:08.296Z,19.73
2022-10-30T14:45:00.813Z,19.67
2022-10-30T14:47:39.661Z,19.58
2022-10-30T14:50:26.949Z,19.50
2022-10-30T14:53:27.520Z,19.44
2022-10-30T14:58:42.588Z,19.28
2022-10-30T15:01:09.261Z,19.25
2022-10-30T15:04:01.411Z,19.28
2022-10-30T15:06:56.416Z,19.22
2022-10-30T15:09:38.817Z,19.17
2022-10-30T15:12:42.341Z,19.12
2022-10-30T15:15:14.497Z,18.99
2022-10-30T15:17:44.509Z,18.94
2022-10-30T15:20:34.297Z,18.88
2022-10-30T15:23:04.088Z,18.88
2022-10-30T15:25:37.512Z,18.85
2022-10-30T15:28:06.062Z,18.81
2022-10-30T15:30:39.328Z,18.73
2022-10-30T15:33:23.308Z,18.70
2022-10-30T15:35:49.908Z,18.62
2022-10-30T15:38:16.617Z,18.58
2022-10-30T15:40:43.407Z,18.48
2022-10-30T15:43:13.287Z,18.49
2022-10-30T15:45:42.093Z,18.42
2022-10-30T15:48:21.842Z,18.35
2022-10-30T15:51:15.450Z,18.25
2022-10-30T15:53:51.574Z,18.21
2022-10-30T15:56:44.434Z,18.29
2022-10-30T15:59:29.754Z,18.16
2022-10-30T16:02:00.861Z,18.07
2022-10-30T16:04:37.776Z,17.98
2022-10-30T16:07:18.610Z,17.89
2022-10-30T16:09:59.391Z,17.84
2022-10-30T16:12:34.946Z,17.77
2022-10-30T16:15:09.231Z,17.71
2022-10-30T16:17:36.001Z,17.70
2022-10-30T16:20:04.703Z,17.71
2022-10-30T16:22:34.732Z,17.65
2022-10-30T16:25:01.965Z,17.62
2022-10-30T16:27:28.793Z,17.58
2022-10-30T16:30:00.093Z,17.58
2022-10-30T16:32:31.248Z,17.51
2022-10-30T16:34:59.798Z,17.45
2022-10-30T16:37:39.737Z,17.39
2022-10-30T16:40:09.490Z,17.30
2022-10-30T16:42:36.276Z,17.27
2022-10-30T16:45:12.096Z,17.28
2022-10-30T16:47:40.974Z,17.26
2022-10-30T16:50:11.022Z,17.21
2022-10-30T16:52:37.771Z,17.13
2022-10-30T16:55:06.856Z,17.08
2022-10-30T16:57:36.565Z,17.00
2022-10-30T17:00:05.166Z,16.98
2022-10-30T17:02:36.342Z,17.14
2022-10-30T17:05:34.089Z,16.99
2022-10-30T17:08:04.413Z,16.92
2022-10-30T17:10:43.441Z,16.86
2022-10-30T17:13:38.101Z,16.84
2022-10-30T17:16:25.546Z,16.78
2022-10-30T17:18:57.192Z,16.75
2022-10-30T17:21:27.749Z,16.66
2022-10-30T17:23:59.133Z,16.67
2022-10-30T17:26:27.396Z,16.68
2022-10-30T17:28:54.188Z,16.68
2022-10-30T17:31:42.766Z,16.72
2022-10-30T17:34:20.560Z,16.74
2022-10-30T17:36:48.532Z,16.74
2022-10-30T17:39:15.551Z,16.77
2022-10-30T17:41:42.873Z,16.80
2022-10-30T17:44:17.952Z,16.83
2022-10-30T17:46:44.522Z,16.77
2022-10-30T17:49:24.162Z,16.91
2022-10-30T17:51:50.978Z,16.85
2022-10-30T17:54:21.203Z,16.82
2022-10-30T17:56:51.053Z,16.82
2022-10-30T18:00:01.326Z,16.80
2022-10-30T18:02:51.026Z,16.76
2022-10-30T18:05:33.800Z,16.72
2022-10-30T18:08:00.555Z,16.58
2022-10-30T18:10:27.450Z,16.54
2022-10-30T18:12:54.093Z,16.59
2022-10-30T18:16:02.575Z,16.58
2022-10-30T18:18:31.944Z,16.47
2022-10-30T18:20:58.630Z,16.48
2022-10-30T18:23:51.467Z,16.51
2022-10-30T18:26:20.951Z,16.49
2022-10-30T18:28:48.715Z,16.44
2022-10-30T18:31:19.470Z,16.43
2022-10-30T18:33:46.398Z,16.24
2022-10-30T18:36:21.885Z,16.42
2022-10-30T18:38:49.377Z,16.55
2022-10-30T18:41:19.196Z,16.44
2022-10-30T18:43:47.267Z,16.29
2022-10-30T18:46:15.212Z,16.33
2022-10-30T18:48:42.124Z,16.45
2022-10-30T18:51:35.706Z,16.58
2022-10-30T18:54:02.930Z,16.42
2022-10-30T18:56:33.641Z,16.24
2022-10-30T18:59:02.524Z,16.34
2022-10-30T19:01:33.253Z,16.41
2022-10-30T19:04:04.647Z,16.26
2022-10-30T19:06:32.964Z,16.20
2022-10-30T19:08:59.780Z,16.04
2022-10-30T19:11:28.255Z,15.97
2022-10-30T19:13:57.184Z,15.76
2022-10-30T19:16:25.556Z,15.64
2022-10-30T19:18:52.701Z,15.54
2022-10-30T19:21:28.199Z,15.45
2022-10-30T19:23:56.367Z,15.33
2022-10-30T19:26:23.162Z,15.32
2022-10-30T19:28:50.098Z,15.41
2022-10-30T19:31:18.653Z,15.58
2022-10-30T19:33:46.203Z,15.66
2022-10-30T19:36:34.487Z,15.55
2022-10-30T19:39:08.968Z,15.51
2022-10-30T19:41:37.052Z,15.60
2022-10-30T19:44:04.421Z,15.73
2022-10-30T19:46:31.496Z,15.75
2022-10-30T19:48:59.541Z,15.82
2022-10-30T19:51:27.672Z,15.69
2022-10-30T19:53:55.001Z,15.79
2022-10-30T19:56:22.327Z,15.73
2022-10-30T19:58:49.532Z,15.61
2022-10-30T20:01:16.699Z,15.69
2022-10-30T20:03:43.732Z,15.59
2022-10-30T20:06:32.203Z,15.51
2022-10-30T20:09:11.890Z,15.48
2022-10-30T20:11:38.598Z,15.45
2022-10-30T20:14:05.391Z,15.41
2022-10-30T20:16:32.123Z,15.37
2022-10-30T20:18:58.854Z,15.41
2022-10-30T20:21:27.526Z,15.35
2022-10-30T20:23:54.279Z,15.43
2022-10-30T20:26:27.409Z,15.45
2022-10-30T20:28:55.331Z,15.55
2022-10-30T20:31:22.137Z,15.50
2022-10-30T20:33:48.927Z,15.41
2022-10-30T20:36:16.023Z,15.29
2022-10-30T20:38:43.066Z,15.35
2022-10-30T20:41:23.067Z,15.35
2022-10-30T20:43:50.612Z,15.33
2022-10-30T20:58:53.151Z,15.01
2022-10-30T21:01:57.935Z,14.99
2022-10-30T21:04:24.840Z,14.98
2022-10-30T21:06:51.632Z,14.89
2022-10-30T21:13:48.600Z,14.79
2022-10-30T21:16:18.673Z,14.82
2022-10-30T21:26:45.511Z,15.02
2022-10-30T21:29:39.472Z,14.92
2022-10-30T21:32:32.180Z,14.83
2022-10-30T21:43:06.255Z,14.93
2022-10-30T21:52:43.679Z,14.79
2022-10-30T22:14:34.291Z,14.42
2022-10-30T22:17:01.150Z,14.39
2022-10-30T22:19:56.975Z,14.36
2022-10-30T22:22:37.182Z,14.54
2022-10-30T22:25:16.438Z,14.59
2022-10-30T22:27:47.194Z,14.45
2022-10-30T22:30:14.514Z,14.46
2022-10-30T22:32:44.972Z,14.29
2022-10-30T22:35:11.982Z,14.26
2022-10-30T22:37:44.498Z,14.20
2022-10-30T22:40:23.037Z,14.19
2022-10-30T22:43:15.907Z,14.14
2022-10-30T22:46:15.623Z,14.15
2022-10-30T22:49:21.066Z,14.12
2022-10-30T22:52:23.621Z,14.14
2022-10-30T22:55:26.487Z,14.01
2022-10-30T22:58:31.361Z,14.00
2022-10-30T23:01:24.818Z,14.03
2022-10-30T23:04:11.143Z,14.20
2022-10-30T23:06:58.647Z,14.19
2022-10-30T23:09:37.126Z,14.02
2022-10-30T23:19:07.247Z,14.27
2022-10-30T23:22:01.835Z,14.00
2022-10-30T23:24:56.584Z,13.99
2022-10-30T23:28:31.127Z,14.15
2022-10-30T23:31:56.150Z,14.15
2022-10-30T23:34:33.271Z,14.15
2022-10-30T23:37:10.224Z,14.00
2022-10-30T23:39:47.186Z,13.95
2022-10-30T23:42:48.495Z,13.95
2022-10-30T23:45:31.756Z,13.85
2022-10-30T23:48:09.750Z,13.93
2022-10-30T23:53:32.463Z,13.83
2022-10-30T23:56:09.202Z,13.71
2022-10-30T23:59:33.738Z,13.59
